PWSweather.com
Personal Weather Stations
Station Observations
KCAIRVIN1
Rancho San JoaquinUniversity Park, Irvine, CA 92612

Rancho San JoaquinUniversity ParkIrvine, CA 92612

Lat: 33.66, Lon: -117.83

Elevation: 72

Station Type:

http://www.irvineweather.net

Latest ConditionsUpdated 5:45:05 PM PST Wednesday, Jan 16, 2019
Currently Today's Max Today's Min Today's Average
Temperature 59.7°F15.4°C 64.1°F17.8°C 57.2°F14.0°C 60.5°F15.8°C
Dew Point 56.3°F13.5°C 59.8°F15.4°C 54.9°F12.7°C 58.2°F14.6°C
Winds Calm Calm 5.8 mph -9.3 kmh - - 0.6 mph 1.0 kmh
Wind Gusts 8.1 mph13.0 kmh 10.3 mph16.6 kmh - -
Humidity 88% 100% 76% 93%
Pressure 30.16 in1021.3 mb 30.22 in1023.4 mb 30.11 in1019.6 mb -
Hour Temp Dew Point Humidity Winds Wind Gusts Pressure Precip Precip Rate Daily Precip Total
05:45 PM 59.7°F15.4°C 56.3°F13.5°C 88% Calm Calm 8.1 mph13.0 kmh 30.16 in1021.3 mb 0.00 in0.0 mm 0.00 in0.0 mm 0.22 in5.6 mm
05:40 PM 59.8°F15.4°C 55.7°F13.2°C 86% Calm Calm 4.6 mph7.4 kmh 30.16 in1021.3 mb 0.00 in0.0 mm 0.00 in0.0 mm 0.22 in5.6 mm
05:35 PM 60.1°F15.6°C 55.7°F13.2°C 85% 4.6 mph SSE7.4 kmh SSE 4.6 mph7.4 kmh 30.16 in1021.3 mb 0.00 in0.0 mm 0.00 in0.0 mm 0.22 in5.6 mm
05:30 PM 60.3°F15.7°C 55.5°F13.1°C 84% Calm Calm 5.8 mph9.3 kmh 30.16 in1021.3 mb 0.00 in0.0 mm 0.00 in0.0 mm 0.22 in5.6 mm
05:25 PM 60.5°F15.8°C 55.7°F13.2°C 84% 1.1 mph SW1.8 kmh SW 5.8 mph9.3 kmh 30.16 in1021.3 mb 0.00 in0.0 mm 0.00 in0.0 mm 0.22 in5.6 mm
05:20 PM 60.9°F16.1°C 55.8°F13.2°C 83% 2.3 mph SE3.7 kmh SE 5.8 mph9.3 kmh 30.16 in1021.3 mb 0.00 in0.0 mm 0.00 in0.0 mm 0.22 in5.6 mm
05:15 PM 61.2°F16.2°C 55.7°F13.2°C 82% 1.1 mph WSW1.8 kmh WSW 5.8 mph9.3 kmh 30.16 in1021.3 mb 0.00 in0.0 mm 0.00 in0.0 mm 0.22 in5.6 mm
05:10 PM 61.5°F16.4°C 55.6°F13.1°C 81% 3.4 mph SW5.5 kmh SW 4.6 mph7.4 kmh 30.15 in1021.0 mb 0.00 in0.0 mm 0.00 in0.0 mm 0.22 in5.6 mm
05:05 PM 61.7°F16.5°C 55.5°F13.1°C 80% 2.3 mph SSW3.7 kmh SSW 4.6 mph7.4 kmh 30.16 in1021.3 mb 0.00 in0.0 mm 0.00 in0.0 mm 0.22 in5.6 mm
04:59 PM 61.9°F16.6°C 54.9°F12.7°C 78% Calm Calm 8.1 mph13.0 kmh 30.16 in1021.3 mb 0.00 in0.0 mm 0.00 in0.0 mm 0.22 in5.6 mm
04:55 PM 62.1°F16.7°C 55.5°F13.1°C 79% 3.4 mph S5.5 kmh S 4.6 mph7.4 kmh 30.16 in1021.3 mb 0.00 in0.0 mm 0.00 in0.0 mm 0.22 in5.6 mm
04:50 PM 62.2°F16.8°C 55.2°F12.9°C 78% 2.3 mph SE3.7 kmh SE 6.9 mph11.1 kmh 30.16 in1021.3 mb 0.00 in0.0 mm 0.00 in0.0 mm 0.22 in5.6 mm
04:45 PM 62.5°F16.9°C 55.5°F13.1°C 78% Calm Calm 6.9 mph11.1 kmh 30.16 in1021.3 mb 0.00 in0.0 mm 0.00 in0.0 mm 0.22 in5.6 mm
04:40 PM 62.8°F17.1°C 55.1°F12.8°C 76% 2.3 mph NE3.7 kmh NE 9.2 mph14.8 kmh 30.16 in1021.3 mb 0.00 in0.0 mm 0.00 in0.0 mm 0.22 in5.6 mm
04:35 PM 63.0°F17.2°C 55.2°F12.9°C 76% 4.6 mph S7.4 kmh S 5.8 mph9.3 kmh 30.16 in1021.3 mb 0.00 in0.0 mm 0.00 in0.0 mm 0.22 in5.6 mm
04:30 PM 63.1°F17.3°C 55.3°F12.9°C 76% Calm Calm 6.9 mph11.1 kmh 30.16 in1021.3 mb 0.00 in0.0 mm 0.00 in0.0 mm 0.22 in5.6 mm
04:25 PM 63.3°F17.4°C 55.5°F13.1°C 76% 1.1 mph SSW1.8 kmh SSW 6.9 mph11.1 kmh 30.16 in1021.3 mb 0.00 in0.0 mm 0.00 in0.0 mm 0.22 in5.6 mm
04:20 PM 63.4°F17.4°C 56.0°F13.3°C 77% 1.1 mph SW1.8 kmh SW 2.3 mph3.7 kmh 30.16 in1021.3 mb 0.00 in0.0 mm 0.00 in0.0 mm 0.22 in5.6 mm
04:15 PM 63.4°F17.4°C 55.6°F13.1°C 76% Calm Calm 2.3 mph3.7 kmh 30.16 in1021.3 mb 0.00 in0.0 mm 0.00 in0.0 mm 0.22 in5.6 mm
04:10 PM 63.5°F17.5°C 56.1°F13.4°C 77% 2.3 mph SW3.7 kmh SW 4.6 mph7.4 kmh 30.16 in1021.3 mb 0.00 in0.0 mm 0.00 in0.0 mm 0.22 in5.6 mm
04:05 PM 63.5°F17.5°C 56.1°F13.4°C 77% 1.1 mph S1.8 kmh S 4.6 mph7.4 kmh 30.16 in1021.3 mb 0.00 in0.0 mm 0.00 in0.0 mm 0.22 in5.6 mm
03:59 PM 63.6°F17.6°C 56.2°F13.4°C 77% Calm Calm 3.4 mph5.5 kmh 30.16 in1021.3 mb 0.00 in0.0 mm 0.00 in0.0 mm 0.22 in5.6 mm
03:55 PM 63.4°F17.4°C 56.0°F13.3°C 77% Calm Calm 3.4 mph5.5 kmh 30.16 in1021.3 mb 0.00 in0.0 mm 0.00 in0.0 mm 0.22 in5.6 mm
03:50 PM 63.5°F17.5°C 56.1°F13.4°C 77% 1.1 mph S1.8 kmh S 3.4 mph5.5 kmh 30.16 in1021.3 mb 0.00 in0.0 mm 0.00 in0.0 mm 0.22 in5.6 mm
03:45 PM 63.5°F17.5°C 56.5°F13.6°C 78% Calm Calm 2.3 mph3.7 kmh 30.16 in1021.3 mb 0.00 in0.0 mm 0.00 in0.0 mm 0.22 in5.6 mm
03:40 PM 63.5°F17.5°C 56.5°F13.6°C 78% Calm Calm 5.8 mph9.3 kmh 30.15 in1021.0 mb 0.00 in0.0 mm 0.00 in0.0 mm 0.22 in5.6 mm
03:35 PM 63.6°F17.6°C 56.6°F13.7°C 78% 2.3 mph S3.7 kmh S 5.8 mph9.3 kmh 30.15 in1021.0 mb 0.00 in0.0 mm 0.00 in0.0 mm 0.22 in5.6 mm
03:30 PM 63.7°F17.6°C 56.3°F13.5°C 77% 1.1 mph SE1.8 kmh SE 5.8 mph9.3 kmh 30.15 in1021.0 mb 0.00 in0.0 mm 0.00 in0.0 mm 0.22 in5.6 mm
03:25 PM 63.9°F17.7°C 56.9°F13.8°C 78% 4.6 mph SW7.4 kmh SW 4.6 mph7.4 kmh 30.15 in1021.0 mb 0.00 in0.0 mm 0.00 in0.0 mm 0.22 in5.6 mm
03:20 PM 64.0°F17.8°C 56.6°F13.7°C 77% Calm Calm 6.9 mph11.1 kmh 30.15 in1021.0 mb 0.00 in0.0 mm 0.00 in0.0 mm 0.22 in5.6 mm
03:15 PM 63.9°F17.7°C 57.2°F14.0°C 79% 2.3 mph SSW3.7 kmh SSW 6.9 mph11.1 kmh 30.15 in1021.0 mb 0.00 in0.0 mm 0.00 in0.0 mm 0.22 in5.6 mm
03:10 PM 63.3°F17.4°C 57.7°F14.3°C 82% 1.1 mph SW1.8 kmh SW 5.8 mph9.3 kmh 30.16 in1021.3 mb 0.00 in0.0 mm 0.00 in0.0 mm 0.22 in5.6 mm
03:05 PM 62.9°F17.2°C 57.4°F14.1°C 82% Calm Calm 5.8 mph9.3 kmh 30.16 in1021.3 mb 0.00 in0.0 mm 0.00 in0.0 mm 0.22 in5.6 mm
02:59 PM 63.0°F17.2°C 57.5°F14.2°C 82% Calm Calm 4.6 mph7.4 kmh 30.16 in1021.3 mb 0.00 in0.0 mm 0.00 in0.0 mm 0.22 in5.6 mm
02:55 PM 63.0°F17.2°C 58.2°F14.6°C 84% 1.1 mph SW1.8 kmh SW 4.6 mph7.4 kmh 30.16 in1021.3 mb 0.00 in0.0 mm 0.00 in0.0 mm 0.22 in5.6 mm
02:50 PM 63.0°F17.2°C 57.8°F14.3°C 83% Calm Calm 4.6 mph7.4 kmh 30.16 in1021.3 mb 0.00 in0.0 mm 0.00 in0.0 mm 0.22 in5.6 mm
02:45 PM 63.0°F17.2°C 57.8°F14.3°C 83% Calm Calm 4.6 mph7.4 kmh 30.16 in1021.3 mb 0.00 in0.0 mm 0.00 in0.0 mm 0.22 in5.6 mm
02:40 PM 63.2°F17.3°C 58.4°F14.7°C 84% Calm Calm 8.1 mph13.0 kmh 30.16 in1021.3 mb 0.00 in0.0 mm 0.00 in0.0 mm 0.22 in5.6 mm
02:35 PM 63.4°F17.4°C 57.8°F14.3°C 82% 4.6 mph SE7.4 kmh SE 8.1 mph13.0 kmh 30.16 in1021.3 mb 0.00 in0.0 mm 0.00 in0.0 mm 0.22 in5.6 mm
02:30 PM 63.8°F17.7°C 58.6°F14.8°C 83% 1.1 mph S1.8 kmh S 3.4 mph5.5 kmh 30.16 in1021.3 mb 0.00 in0.0 mm 0.00 in0.0 mm 0.22 in5.6 mm
02:25 PM 64.1°F17.8°C 58.5°F14.7°C 82% 1.1 mph SW1.8 kmh SW 2.3 mph3.7 kmh 30.16 in1021.3 mb 0.00 in0.0 mm 0.00 in0.0 mm 0.22 in5.6 mm
02:20 PM 63.7°F17.6°C 58.8°F14.9°C 84% 1.1 mph ENE1.8 kmh ENE 10.3 mph16.6 kmh 30.15 in1021.0 mb 0.00 in0.0 mm 0.00 in0.0 mm 0.22 in5.6 mm
02:15 PM 63.4°F17.4°C 58.2°F14.6°C 83% 3.4 mph SW5.5 kmh SW 10.3 mph16.6 kmh 30.16 in1021.3 mb 0.00 in0.0 mm 0.00 in0.0 mm 0.22 in5.6 mm
02:10 PM 63.3°F17.4°C 58.8°F14.9°C 85% 5.8 mph SW9.3 kmh SW 8.1 mph13.0 kmh 30.16 in1021.3 mb 0.00 in0.0 mm 0.00 in0.0 mm 0.22 in5.6 mm
02:05 PM 63.1°F17.3°C 58.6°F14.8°C 85% 3.4 mph SSW5.5 kmh SSW 6.9 mph11.1 kmh 30.15 in1021.0 mb 0.00 in0.0 mm 0.00 in0.0 mm 0.22 in5.6 mm
01:59 PM 62.7°F17.1°C 58.5°F14.7°C 86% Calm Calm 4.6 mph7.4 kmh 30.15 in1021.0 mb 0.00 in0.0 mm 0.00 in0.0 mm 0.22 in5.6 mm
01:55 PM 62.6°F17.0°C 58.4°F14.7°C 86% Calm Calm 3.4 mph5.5 kmh 30.15 in1021.0 mb 0.00 in0.0 mm 0.00 in0.0 mm 0.22 in5.6 mm
01:50 PM 62.8°F17.1°C 58.0°F14.4°C 84% 2.3 mph ENE3.7 kmh ENE 5.8 mph9.3 kmh 30.16 in1021.3 mb 0.00 in0.0 mm 0.00 in0.0 mm 0.22 in5.6 mm
01:45 PM 62.9°F17.2°C 58.4°F14.7°C 85% 1.1 mph SSW1.8 kmh SSW 5.8 mph9.3 kmh 30.16 in1021.3 mb 0.00 in0.0 mm 0.00 in0.0 mm 0.22 in5.6 mm
01:40 PM 62.6°F17.0°C 57.4°F14.1°C 83% Calm Calm 9.2 mph14.8 kmh 30.16 in1021.3 mb 0.00 in0.0 mm 0.00 in0.0 mm 0.22 in5.6 mm
01:35 PM 62.6°F17.0°C 57.4°F14.1°C 83% Calm Calm 9.2 mph14.8 kmh 30.16 in1021.3 mb 0.00 in0.0 mm 0.00 in0.0 mm 0.22 in5.6 mm
01:30 PM 62.5°F16.9°C 57.7°F14.3°C 84% 1.1 mph S1.8 kmh S 9.2 mph14.8 kmh 30.16 in1021.3 mb 0.00 in0.0 mm 0.00 in0.0 mm 0.22 in5.6 mm
01:25 PM 62.5°F16.9°C 57.3°F14.1°C 83% Calm Calm 9.2 mph14.8 kmh 30.16 in1021.3 mb 0.00 in0.0 mm 0.00 in0.0 mm 0.22 in5.6 mm
01:20 PM 62.8°F17.1°C 58.0°F14.4°C 84% 2.3 mph S3.7 kmh S 10.3 mph16.6 kmh 30.16 in1021.3 mb 0.00 in0.0 mm 0.00 in0.0 mm 0.22 in5.6 mm
01:15 PM 63.0°F17.2°C 57.8°F14.3°C 83% 4.6 mph S7.4 kmh S 4.6 mph7.4 kmh 30.16 in1021.3 mb 0.00 in0.0 mm 0.00 in0.0 mm 0.22 in5.6 mm
01:10 PM 63.1°F17.3°C 57.9°F14.4°C 83% Calm Calm 6.9 mph11.1 kmh 30.16 in1021.3 mb 0.00 in0.0 mm 0.00 in0.0 mm 0.22 in5.6 mm
01:05 PM 62.8°F17.1°C 58.3°F14.6°C 85% Calm Calm 6.9 mph11.1 kmh 30.16 in1021.3 mb 0.00 in0.0 mm 0.00 in0.0 mm 0.22 in5.6 mm
12:59 PM 62.6°F17.0°C 58.4°F14.7°C 86% 2.3 mph S3.7 kmh S 8.1 mph13.0 kmh 30.17 in1021.7 mb 0.00 in0.0 mm 0.00 in0.0 mm 0.22 in5.6 mm
12:55 PM 62.4°F16.9°C 58.3°F14.6°C 86% 1.1 mph SW1.8 kmh SW 8.1 mph13.0 kmh 30.17 in1021.7 mb 0.00 in0.0 mm 0.00 in0.0 mm 0.22 in5.6 mm
12:50 PM 62.4°F16.9°C 57.9°F14.4°C 85% 1.1 mph SE1.8 kmh SE 6.9 mph11.1 kmh 30.17 in1021.7 mb 0.00 in0.0 mm 0.00 in0.0 mm 0.22 in5.6 mm
12:45 PM 62.5°F16.9°C 58.7°F14.8°C 87% 4.6 mph S7.4 kmh S 4.6 mph7.4 kmh 30.17 in1021.7 mb 0.00 in0.0 mm 0.00 in0.0 mm 0.22 in5.6 mm
12:40 PM 62.4°F16.9°C 59.6°F15.3°C 91% Calm Calm 6.9 mph11.1 kmh 30.17 in1021.7 mb 0.00 in0.0 mm 0.00 in0.0 mm 0.22 in5.6 mm
12:35 PM 62.4°F16.9°C 58.3°F14.6°C 86% Calm Calm 6.9 mph11.1 kmh 30.17 in1021.7 mb 0.00 in0.0 mm 0.00 in0.0 mm 0.22 in5.6 mm
12:30 PM 62.1°F16.7°C 59.6°F15.3°C 92% Calm Calm 5.8 mph9.3 kmh 30.17 in1021.7 mb 0.00 in0.0 mm 0.00 in0.0 mm 0.22 in5.6 mm
12:25 PM 61.8°F16.6°C 58.7°F14.8°C 89% Calm Calm 3.4 mph5.5 kmh 30.17 in1021.7 mb 0.00 in0.0 mm 0.00 in0.0 mm 0.22 in5.6 mm
12:20 PM 61.7°F16.5°C 58.9°F14.9°C 91% Calm Calm 8.1 mph13.0 kmh 30.18 in1022.0 mb 0.00 in0.0 mm 0.00 in0.0 mm 0.22 in5.6 mm
12:15 PM 61.7°F16.5°C 58.9°F14.9°C 91% 5.8 mph SW9.3 kmh SW 8.1 mph13.0 kmh 30.18 in1022.0 mb 0.00 in0.0 mm 0.00 in0.0 mm 0.22 in5.6 mm
12:10 PM 61.7°F16.5°C 58.9°F14.9°C 91% Calm Calm 10.3 mph16.6 kmh 30.18 in1022.0 mb 0.00 in0.0 mm 0.00 in0.0 mm 0.22 in5.6 mm
12:05 PM 61.5°F16.4°C 58.7°F14.8°C 91% Calm Calm 4.6 mph7.4 kmh 30.18 in1022.0 mb 0.00 in0.0 mm 0.00 in0.0 mm 0.22 in5.6 mm
11:59 AM 61.6°F16.4°C 58.8°F14.9°C 91% 1.1 mph SSW1.8 kmh SSW 10.3 mph16.6 kmh 30.19 in1022.4 mb 0.00 in0.0 mm 0.00 in0.0 mm 0.22 in5.6 mm
11:55 AM 61.7°F16.5°C 58.6°F14.8°C 89% 3.4 mph SW5.5 kmh SW 10.3 mph16.6 kmh 30.19 in1022.4 mb 0.00 in0.0 mm 0.00 in0.0 mm 0.22 in5.6 mm
11:50 AM 62.0°F16.7°C 59.2°F15.1°C 91% 2.3 mph NE3.7 kmh NE 9.2 mph14.8 kmh 30.19 in1022.4 mb 0.00 in0.0 mm 0.00 in0.0 mm 0.22 in5.6 mm
11:45 AM 61.9°F16.6°C 59.4°F15.2°C 92% Calm Calm 5.8 mph9.3 kmh 30.19 in1022.4 mb 0.00 in0.0 mm 0.00 in0.0 mm 0.22 in5.6 mm
11:40 AM 61.6°F16.4°C 59.1°F15.1°C 92% 1.1 mph S1.8 kmh S 9.2 mph14.8 kmh 30.20 in1022.7 mb 0.00 in0.0 mm 0.00 in0.0 mm 0.22 in5.6 mm
11:35 AM 61.6°F16.4°C 58.8°F14.9°C 91% 1.1 mph SW1.8 kmh SW 9.2 mph14.8 kmh 30.20 in1022.7 mb 0.00 in0.0 mm 0.00 in0.0 mm 0.22 in5.6 mm
11:30 AM 61.9°F16.6°C 59.4°F15.2°C 92% 2.3 mph ESE3.7 kmh ESE 8.1 mph13.0 kmh 30.20 in1022.7 mb 0.00 in0.0 mm 0.00 in0.0 mm 0.22 in5.6 mm
11:25 AM 61.9°F16.6°C 59.1°F15.1°C 91% Calm Calm 3.4 mph5.5 kmh 30.20 in1022.7 mb 0.00 in0.0 mm 0.00 in0.0 mm 0.22 in5.6 mm
11:20 AM 61.9°F16.6°C 59.4°F15.2°C 92% Calm Calm 5.8 mph9.3 kmh 30.21 in1023.0 mb 0.00 in0.0 mm 0.00 in0.0 mm 0.22 in5.6 mm
11:15 AM 61.9°F16.6°C 59.7°F15.4°C 93% 3.4 mph SW5.5 kmh SW 4.6 mph7.4 kmh 30.21 in1023.0 mb 0.00 in0.0 mm 0.00 in0.0 mm 0.22 in5.6 mm
11:10 AM 61.8°F16.6°C 59.3°F15.2°C 92% Calm Calm 6.9 mph11.1 kmh 30.21 in1023.0 mb 0.00 in0.0 mm 0.00 in0.0 mm 0.22 in5.6 mm
11:05 AM 61.9°F16.6°C 59.7°F15.4°C 93% Calm Calm 6.9 mph11.1 kmh 30.21 in1023.0 mb 0.00 in0.0 mm 0.00 in0.0 mm 0.22 in5.6 mm
10:59 AM 61.5°F16.4°C 59.6°F15.3°C 94% 1.1 mph NE1.8 kmh NE 5.8 mph9.3 kmh 30.22 in1023.4 mb 0.00 in0.0 mm 0.00 in0.0 mm 0.22 in5.6 mm
10:55 AM 61.1°F16.2°C 59.2°F15.1°C 94% Calm Calm 5.8 mph9.3 kmh 30.22 in1023.4 mb 0.00 in0.0 mm 0.00 in0.0 mm 0.22 in5.6 mm
10:50 AM 60.5°F15.8°C 59.0°F15.0°C 95% Calm Calm 4.6 mph7.4 kmh 30.22 in1023.4 mb 0.00 in0.0 mm 0.00 in0.0 mm 0.22 in5.6 mm
10:45 AM 60.0°F15.6°C 58.2°F14.6°C 94% Calm Calm 4.6 mph7.4 kmh 30.22 in1023.4 mb 0.00 in0.0 mm 0.00 in0.0 mm 0.22 in5.6 mm
10:40 AM 59.9°F15.5°C 58.1°F14.5°C 94% Calm Calm 3.4 mph5.5 kmh 30.22 in1023.4 mb 0.00 in0.0 mm 0.00 in0.0 mm 0.22 in5.6 mm
10:35 AM 59.9°F15.5°C 58.1°F14.5°C 94% Calm Calm 3.4 mph5.5 kmh 30.22 in1023.4 mb 0.00 in0.0 mm 0.00 in0.0 mm 0.22 in5.6 mm
10:30 AM 60.1°F15.6°C 58.3°F14.6°C 94% Calm Calm 5.8 mph9.3 kmh 30.22 in1023.4 mb 0.00 in0.0 mm 0.00 in0.0 mm 0.22 in5.6 mm
10:25 AM 60.0°F15.6°C 58.5°F14.7°C 95% 1.1 mph SE1.8 kmh SE 5.8 mph9.3 kmh 30.22 in1023.4 mb 0.00 in0.0 mm 0.00 in0.0 mm 0.22 in5.6 mm
10:20 AM 59.8°F15.4°C 58.6°F14.8°C 96% Calm Calm 2.3 mph3.7 kmh 30.22 in1023.4 mb 0.00 in0.0 mm 0.00 in0.0 mm 0.22 in5.6 mm
10:15 AM 59.7°F15.4°C 58.5°F14.7°C 96% Calm Calm 1.1 mph1.8 kmh 30.22 in1023.4 mb 0.00 in0.0 mm 0.00 in0.0 mm 0.22 in5.6 mm
10:10 AM 59.6°F15.3°C 58.1°F14.5°C 95% Calm Calm 4.6 mph7.4 kmh 30.21 in1023.0 mb 0.00 in0.0 mm 0.00 in0.0 mm 0.22 in5.6 mm
10:05 AM 59.6°F15.3°C 58.4°F14.7°C 96% Calm Calm 3.4 mph5.5 kmh 30.21 in1023.0 mb 0.00 in0.0 mm 0.00 in0.0 mm 0.22 in5.6 mm
09:59 AM 59.5°F15.3°C 58.3°F14.6°C 96% Calm Calm 2.3 mph3.7 kmh 30.21 in1023.0 mb 0.00 in0.0 mm 0.00 in0.0 mm 0.22 in5.6 mm
09:55 AM 59.5°F15.3°C 58.3°F14.6°C 96% Calm Calm 2.3 mph3.7 kmh 30.21 in1023.0 mb 0.00 in0.0 mm 0.00 in0.0 mm 0.22 in5.6 mm
09:50 AM 59.4°F15.2°C 58.2°F14.6°C 96% Calm Calm 1.1 mph1.8 kmh 30.21 in1023.0 mb 0.00 in0.0 mm 0.00 in0.0 mm 0.22 in5.6 mm
09:45 AM 59.4°F15.2°C 58.5°F14.7°C 97% Calm Calm 1.1 mph1.8 kmh 30.20 in1022.7 mb 0.00 in0.0 mm 0.00 in0.0 mm 0.22 in5.6 mm
09:40 AM 59.5°F15.3°C 58.6°F14.8°C 97% Calm Calm 2.3 mph3.7 kmh 30.20 in1022.7 mb 0.00 in0.0 mm 0.00 in0.0 mm 0.22 in5.6 mm
09:35 AM 59.5°F15.3°C 58.3°F14.6°C 96% Calm Calm 2.3 mph3.7 kmh 30.20 in1022.7 mb 0.00 in0.0 mm 0.00 in0.0 mm 0.22 in5.6 mm
09:30 AM 59.6°F15.3°C 58.4°F14.7°C 96% Calm Calm 2.3 mph3.7 kmh 30.20 in1022.7 mb 0.00 in0.0 mm 0.00 in0.0 mm 0.22 in5.6 mm
09:25 AM 59.7°F15.4°C 58.2°F14.6°C 95% 1.1 mph SSE1.8 kmh SSE 2.3 mph3.7 kmh 30.20 in1022.7 mb 0.00 in0.0 mm 0.00 in0.0 mm 0.22 in5.6 mm
09:20 AM 59.6°F15.3°C 58.4°F14.7°C 96% Calm Calm 4.6 mph7.4 kmh 30.19 in1022.4 mb 0.01 in0.3 mm 0.00 in0.0 mm 0.22 in5.6 mm
09:15 AM 59.6°F15.3°C 58.1°F14.5°C 95% Calm Calm 4.6 mph7.4 kmh 30.19 in1022.4 mb 0.01 in0.3 mm 0.00 in0.0 mm 0.22 in5.6 mm
09:10 AM 59.6°F15.3°C 58.1°F14.5°C 95% Calm Calm 4.6 mph7.4 kmh 30.19 in1022.4 mb 0.01 in0.3 mm 0.00 in0.0 mm 0.22 in5.6 mm
09:05 AM 59.7°F15.4°C 58.2°F14.6°C 95% Calm Calm 4.6 mph7.4 kmh 30.19 in1022.4 mb 0.01 in0.3 mm 0.00 in0.0 mm 0.22 in5.6 mm
08:59 AM 59.9°F15.5°C 58.7°F14.8°C 96% Calm Calm 2.3 mph3.7 kmh 30.18 in1022.0 mb 0.01 in0.3 mm 0.00 in0.0 mm 0.22 in5.6 mm
08:55 AM 59.8°F15.4°C 58.6°F14.8°C 96% Calm Calm 1.1 mph1.8 kmh 30.18 in1022.0 mb 0.01 in0.3 mm 0.00 in0.0 mm 0.22 in5.6 mm
08:50 AM 59.6°F15.3°C 58.1°F14.5°C 95% Calm Calm 3.4 mph5.5 kmh 30.18 in1022.0 mb 0.01 in0.3 mm 0.00 in0.0 mm 0.22 in5.6 mm
08:45 AM 59.3°F15.2°C 58.1°F14.5°C 96% Calm Calm 3.4 mph5.5 kmh 30.18 in1022.0 mb 0.01 in0.3 mm 0.00 in0.0 mm 0.22 in5.6 mm
08:40 AM 59.0°F15.0°C 57.8°F14.3°C 96% Calm Calm 5.8 mph9.3 kmh 30.17 in1021.7 mb 0.01 in0.3 mm 0.00 in0.0 mm 0.22 in5.6 mm
08:35 AM 58.9°F14.9°C 58.0°F14.4°C 97% Calm Calm 4.6 mph7.4 kmh 30.17 in1021.7 mb 0.01 in0.3 mm 0.00 in0.0 mm 0.22 in5.6 mm
08:30 AM 58.8°F14.9°C 57.9°F14.4°C 97% Calm Calm 3.4 mph5.5 kmh 30.17 in1021.7 mb 0.01 in0.3 mm 0.00 in0.0 mm 0.22 in5.6 mm
08:25 AM 58.7°F14.8°C 57.8°F14.3°C 97% Calm Calm 3.4 mph5.5 kmh 30.17 in1021.7 mb 0.01 in0.3 mm 0.00 in0.0 mm 0.22 in5.6 mm
08:20 AM 58.6°F14.8°C 57.4°F14.1°C 96% Calm Calm 3.4 mph5.5 kmh 30.17 in1021.7 mb 0.01 in0.3 mm 0.12 in3.0 mm 0.22 in5.6 mm
08:15 AM 58.7°F14.8°C 57.8°F14.3°C 97% Calm Calm 1.1 mph1.8 kmh 30.16 in1021.3 mb 0.00 in0.0 mm 0.00 in0.0 mm 0.21 in5.3 mm
08:10 AM 58.7°F14.8°C 57.8°F14.3°C 97% 1.1 mph SW1.8 kmh SW 2.3 mph3.7 kmh 30.16 in1021.3 mb 0.00 in0.0 mm 0.00 in0.0 mm 0.21 in5.3 mm
08:05 AM 58.6°F14.8°C 57.7°F14.3°C 97% Calm Calm 2.3 mph3.7 kmh 30.16 in1021.3 mb 0.00 in0.0 mm 0.00 in0.0 mm 0.21 in5.3 mm
07:59 AM 58.5°F14.7°C 57.6°F14.2°C 97% Calm Calm 5.8 mph9.3 kmh 30.16 in1021.3 mb 0.02 in0.5 mm 0.00 in0.0 mm 0.21 in5.3 mm
07:55 AM 58.5°F14.7°C 57.6°F14.2°C 97% 1.1 mph S1.8 kmh S 5.8 mph9.3 kmh 30.16 in1021.3 mb 0.02 in0.5 mm 0.00 in0.0 mm 0.21 in5.3 mm
07:50 AM 58.3°F14.6°C 57.4°F14.1°C 97% Calm Calm 2.3 mph3.7 kmh 30.16 in1021.3 mb 0.03 in0.8 mm 0.00 in0.0 mm 0.21 in5.3 mm
07:45 AM 58.1°F14.5°C 57.2°F14.0°C 97% Calm Calm 1.1 mph1.8 kmh 30.16 in1021.3 mb 0.03 in0.8 mm 0.00 in0.0 mm 0.21 in5.3 mm
07:40 AM 58.2°F14.6°C 57.3°F14.1°C 97% Calm Calm 1.1 mph1.8 kmh 30.16 in1021.3 mb 0.03 in0.8 mm 0.00 in0.0 mm 0.21 in5.3 mm
07:35 AM 58.2°F14.6°C 57.3°F14.1°C 97% Calm Calm 1.1 mph1.8 kmh 30.16 in1021.3 mb 0.03 in0.8 mm 0.00 in0.0 mm 0.21 in5.3 mm
07:30 AM 58.3°F14.6°C 57.7°F14.3°C 98% Calm Calm -- 30.16 in1021.3 mb 0.03 in0.8 mm 0.00 in0.0 mm 0.21 in5.3 mm
07:25 AM 58.3°F14.6°C 57.7°F14.3°C 98% Calm Calm -- 30.16 in1021.3 mb 0.03 in0.8 mm 0.00 in0.0 mm 0.21 in5.3 mm
07:20 AM 58.4°F14.7°C 57.8°F14.3°C 98% Calm Calm 1.1 mph1.8 kmh 30.15 in1021.0 mb 0.03 in0.8 mm 0.00 in0.0 mm 0.21 in5.3 mm
07:15 AM 58.3°F14.6°C 57.7°F14.3°C 98% Calm Calm 1.1 mph1.8 kmh 30.15 in1021.0 mb 0.03 in0.8 mm 0.00 in0.0 mm 0.21 in5.3 mm
07:10 AM 58.3°F14.6°C 57.4°F14.1°C 97% Calm Calm 2.3 mph3.7 kmh 30.15 in1021.0 mb 0.04 in1.0 mm 0.00 in0.0 mm 0.21 in5.3 mm
07:05 AM 58.5°F14.7°C 57.9°F14.4°C 98% Calm Calm 1.1 mph1.8 kmh 30.15 in1021.0 mb 0.04 in1.0 mm 0.00 in0.0 mm 0.21 in5.3 mm
06:59 AM 58.6°F14.8°C 58.0°F14.4°C 98% Calm Calm -- 30.14 in1020.7 mb 0.04 in1.0 mm 0.00 in0.0 mm 0.21 in5.3 mm
06:55 AM 58.7°F14.8°C 57.8°F14.3°C 97% Calm Calm -- 30.15 in1021.0 mb 0.04 in1.0 mm 0.24 in6.1 mm 0.21 in5.3 mm
06:50 AM 58.9°F14.9°C 58.0°F14.4°C 97% Calm Calm -- 30.14 in1020.7 mb 0.02 in0.5 mm 0.12 in3.0 mm 0.19 in4.8 mm
06:45 AM 58.9°F14.9°C 58.0°F14.4°C 97% Calm Calm -- 30.14 in1020.7 mb 0.01 in0.3 mm 0.00 in0.0 mm 0.18 in4.6 mm
06:40 AM 59.0°F15.0°C 58.1°F14.5°C 97% Calm Calm 2.3 mph3.7 kmh 30.14 in1020.7 mb 0.01 in0.3 mm 0.00 in0.0 mm 0.18 in4.6 mm
06:35 AM 59.0°F15.0°C 58.1°F14.5°C 97% Calm Calm 2.3 mph3.7 kmh 30.14 in1020.7 mb 0.01 in0.3 mm 0.00 in0.0 mm 0.18 in4.6 mm
06:30 AM 59.2°F15.1°C 58.6°F14.8°C 98% Calm Calm 2.3 mph3.7 kmh 30.14 in1020.7 mb 0.02 in0.5 mm 0.00 in0.0 mm 0.18 in4.6 mm
06:25 AM 59.2°F15.1°C 58.6°F14.8°C 98% Calm Calm -- 30.13 in1020.3 mb 0.02 in0.5 mm 0.00 in0.0 mm 0.18 in4.6 mm
06:20 AM 59.2°F15.1°C 58.6°F14.8°C 98% Calm Calm 1.1 mph1.8 kmh 30.13 in1020.3 mb 0.02 in0.5 mm 0.00 in0.0 mm 0.18 in4.6 mm
06:15 AM 59.2°F15.1°C 58.6°F14.8°C 98% Calm Calm 1.1 mph1.8 kmh 30.13 in1020.3 mb 0.02 in0.5 mm 0.00 in0.0 mm 0.18 in4.6 mm
06:10 AM 59.2°F15.1°C 58.6°F14.8°C 98% Calm Calm 2.3 mph3.7 kmh 30.12 in1020.0 mb 0.02 in0.5 mm 0.00 in0.0 mm 0.18 in4.6 mm
06:05 AM 59.3°F15.2°C 59.0°F15.0°C 99% 1.1 mph S1.8 kmh S 1.1 mph1.8 kmh 30.12 in1020.0 mb 0.02 in0.5 mm 0.00 in0.0 mm 0.18 in4.6 mm
05:59 AM 59.3°F15.2°C 59.0°F15.0°C 99% Calm Calm -- 30.13 in1020.3 mb 0.02 in0.5 mm 0.00 in0.0 mm 0.18 in4.6 mm
05:55 AM 59.2°F15.1°C 58.9°F14.9°C 99% Calm Calm -- 30.12 in1020.0 mb 0.02 in0.5 mm 0.00 in0.0 mm 0.18 in4.6 mm
05:50 AM 59.3°F15.2°C 59.0°F15.0°C 99% Calm Calm -- 30.12 in1020.0 mb 0.03 in0.8 mm 0.00 in0.0 mm 0.18 in4.6 mm
05:45 AM 59.3°F15.2°C 59.0°F15.0°C 99% Calm Calm -- 30.12 in1020.0 mb 0.03 in0.8 mm 0.00 in0.0 mm 0.18 in4.6 mm
05:40 AM 59.3°F15.2°C 59.0°F15.0°C 99% Calm Calm -- 30.12 in1020.0 mb 0.04 in1.0 mm 0.00 in0.0 mm 0.18 in4.6 mm
05:35 AM 59.4°F15.2°C 59.1°F15.1°C 99% Calm Calm -- 30.12 in1020.0 mb 0.04 in1.0 mm 0.00 in0.0 mm 0.18 in4.6 mm
05:30 AM 59.4°F15.2°C 59.1°F15.1°C 99% Calm Calm -- 30.12 in1020.0 mb 0.06 in1.5 mm 0.00 in0.0 mm 0.18 in4.6 mm
05:25 AM 59.6°F15.3°C 59.6°F15.3°C 100% Calm Calm -- 30.12 in1020.0 mb 0.06 in1.5 mm 0.00 in0.0 mm 0.18 in4.6 mm
05:20 AM 59.6°F15.3°C 59.6°F15.3°C 100% Calm Calm -- 30.12 in1020.0 mb 0.07 in1.8 mm 0.00 in0.0 mm 0.18 in4.6 mm
05:15 AM 59.6°F15.3°C 59.6°F15.3°C 100% Calm Calm -- 30.12 in1020.0 mb 0.07 in1.8 mm 0.00 in0.0 mm 0.18 in4.6 mm
05:10 AM 59.6°F15.3°C 59.6°F15.3°C 100% Calm Calm -- 30.12 in1020.0 mb 0.07 in1.8 mm 0.00 in0.0 mm 0.18 in4.6 mm
05:05 AM 59.6°F15.3°C 59.6°F15.3°C 100% Calm Calm -- 30.12 in1020.0 mb 0.07 in1.8 mm 0.00 in0.0 mm 0.18 in4.6 mm
04:59 AM 59.7°F15.4°C 59.7°F15.4°C 100% Calm Calm -- 30.12 in1020.0 mb 0.07 in1.8 mm 0.15 in3.8 mm 0.18 in4.6 mm
04:55 AM 59.7°F15.4°C 59.7°F15.4°C 100% Calm Calm -- 30.12 in1020.0 mb 0.06 in1.5 mm 0.00 in0.0 mm 0.17 in4.3 mm
04:50 AM 59.7°F15.4°C 59.7°F15.4°C 100% Calm Calm 2.3 mph3.7 kmh 30.12 in1020.0 mb 0.06 in1.5 mm 0.00 in0.0 mm 0.17 in4.3 mm
04:45 AM 59.7°F15.4°C 59.7°F15.4°C 100% Calm Calm 1.1 mph1.8 kmh 30.12 in1020.0 mb 0.06 in1.5 mm 0.12 in3.0 mm 0.17 in4.3 mm
04:40 AM 59.8°F15.4°C 59.8°F15.4°C 100% Calm Calm -- 30.12 in1020.0 mb 0.05 in1.3 mm 0.00 in0.0 mm 0.16 in4.1 mm
04:35 AM 59.8°F15.4°C 59.8°F15.4°C 100% Calm Calm -- 30.12 in1020.0 mb 0.05 in1.3 mm 0.12 in3.0 mm 0.16 in4.1 mm
04:30 AM 59.8°F15.4°C 59.5°F15.3°C 99% Calm Calm -- 30.12 in1020.0 mb 0.04 in1.0 mm 0.12 in3.0 mm 0.15 in3.8 mm
04:25 AM 59.8°F15.4°C 59.5°F15.3°C 99% Calm Calm -- 30.12 in1020.0 mb 0.03 in0.8 mm 0.12 in3.0 mm 0.14 in3.6 mm
04:20 AM 59.8°F15.4°C 59.5°F15.3°C 99% Calm Calm 2.3 mph3.7 kmh 30.12 in1020.0 mb 0.02 in0.5 mm 0.24 in6.1 mm 0.13 in3.3 mm
04:15 AM 59.9°F15.5°C 59.6°F15.3°C 99% Calm Calm 2.3 mph3.7 kmh 30.12 in1020.0 mb 0.00 in0.0 mm 0.00 in0.0 mm 0.11 in2.8 mm
04:10 AM 59.9°F15.5°C 59.6°F15.3°C 99% Calm Calm 1.1 mph1.8 kmh 30.12 in1020.0 mb 0.00 in0.0 mm 0.00 in0.0 mm 0.11 in2.8 mm
04:05 AM 60.0°F15.6°C 59.7°F15.4°C 99% Calm Calm 1.1 mph1.8 kmh 30.12 in1020.0 mb 0.00 in0.0 mm 0.00 in0.0 mm 0.11 in2.8 mm
03:59 AM 59.9°F15.5°C 59.6°F15.3°C 99% Calm Calm 3.4 mph5.5 kmh 30.12 in1020.0 mb 0.00 in0.0 mm 0.00 in0.0 mm 0.11 in2.8 mm
03:55 AM 59.9°F15.5°C 59.6°F15.3°C 99% 1.1 mph SSW1.8 kmh SSW 2.3 mph3.7 kmh 30.12 in1020.0 mb 0.00 in0.0 mm 0.00 in0.0 mm 0.11 in2.8 mm
03:50 AM 59.9°F15.5°C 59.6°F15.3°C 99% 1.1 mph SW1.8 kmh SW 2.3 mph3.7 kmh 30.12 in1020.0 mb 0.00 in0.0 mm 0.00 in0.0 mm 0.11 in2.8 mm
03:45 AM 59.9°F15.5°C 59.6°F15.3°C 99% Calm Calm 1.1 mph1.8 kmh 30.12 in1020.0 mb 0.00 in0.0 mm 0.00 in0.0 mm 0.11 in2.8 mm
03:40 AM 59.8°F15.4°C 59.5°F15.3°C 99% Calm Calm 2.3 mph3.7 kmh 30.12 in1020.0 mb 0.01 in0.3 mm 0.00 in0.0 mm 0.11 in2.8 mm
03:35 AM 59.8°F15.4°C 59.5°F15.3°C 99% Calm Calm 2.3 mph3.7 kmh 30.12 in1020.0 mb 0.01 in0.3 mm 0.00 in0.0 mm 0.11 in2.8 mm
03:30 AM 59.8°F15.4°C 59.5°F15.3°C 99% Calm Calm 3.4 mph5.5 kmh 30.12 in1020.0 mb 0.04 in1.0 mm 0.00 in0.0 mm 0.11 in2.8 mm
03:25 AM 59.6°F15.3°C 59.3°F15.2°C 99% 2.3 mph SW3.7 kmh SW 3.4 mph5.5 kmh 30.12 in1020.0 mb 0.04 in1.0 mm 0.00 in0.0 mm 0.11 in2.8 mm
03:20 AM 59.6°F15.3°C 59.3°F15.2°C 99% Calm Calm 4.6 mph7.4 kmh 30.12 in1020.0 mb 0.05 in1.3 mm 0.00 in0.0 mm 0.11 in2.8 mm
03:15 AM 59.6°F15.3°C 59.3°F15.2°C 99% 1.1 mph WSW1.8 kmh WSW 3.4 mph5.5 kmh 30.12 in1020.0 mb 0.05 in1.3 mm 0.00 in0.0 mm 0.11 in2.8 mm
03:10 AM 59.6°F15.3°C 59.3°F15.2°C 99% Calm Calm 3.4 mph5.5 kmh 30.12 in1020.0 mb 0.05 in1.3 mm 0.00 in0.0 mm 0.11 in2.8 mm
03:05 AM 59.6°F15.3°C 59.3°F15.2°C 99% 2.3 mph S3.7 kmh S 3.4 mph5.5 kmh 30.12 in1020.0 mb 0.05 in1.3 mm 0.00 in0.0 mm 0.11 in2.8 mm
02:59 AM 59.5°F15.3°C 59.2°F15.1°C 99% Calm Calm 3.4 mph5.5 kmh 30.12 in1020.0 mb 0.05 in1.3 mm 0.00 in0.0 mm 0.11 in2.8 mm
02:55 AM 59.6°F15.3°C 59.3°F15.2°C 99% Calm Calm 2.3 mph3.7 kmh 30.12 in1020.0 mb 0.05 in1.3 mm 0.00 in0.0 mm 0.11 in2.8 mm
02:50 AM 59.6°F15.3°C 59.3°F15.2°C 99% Calm Calm 3.4 mph5.5 kmh 30.12 in1020.0 mb 0.05 in1.3 mm 0.00 in0.0 mm 0.11 in2.8 mm
02:45 AM 59.6°F15.3°C 59.3°F15.2°C 99% Calm Calm 3.4 mph5.5 kmh 30.12 in1020.0 mb 0.05 in1.3 mm 0.00 in0.0 mm 0.11 in2.8 mm
02:40 AM 59.6°F15.3°C 59.3°F15.2°C 99% 2.3 mph SW3.7 kmh SW 5.8 mph9.3 kmh 30.12 in1020.0 mb 0.05 in1.3 mm 0.00 in0.0 mm 0.11 in2.8 mm
02:35 AM 59.6°F15.3°C 59.3°F15.2°C 99% Calm Calm 5.8 mph9.3 kmh 30.12 in1020.0 mb 0.05 in1.3 mm 0.12 in3.0 mm 0.11 in2.8 mm
02:30 AM 59.6°F15.3°C 59.3°F15.2°C 99% 1.1 mph SW1.8 kmh SW 6.9 mph11.1 kmh 30.12 in1020.0 mb 0.04 in1.0 mm 0.12 in3.0 mm 0.10 in2.5 mm
02:25 AM 59.7°F15.4°C 59.4°F15.2°C 99% Calm Calm 3.4 mph5.5 kmh 30.12 in1020.0 mb 0.03 in0.8 mm 0.12 in3.0 mm 0.09 in2.3 mm
02:20 AM 59.7°F15.4°C 59.4°F15.2°C 99% 1.1 mph SSW1.8 kmh SSW 4.6 mph7.4 kmh 30.12 in1020.0 mb 0.02 in0.5 mm 0.00 in0.0 mm 0.08 in2.0 mm
02:15 AM 59.7°F15.4°C 59.4°F15.2°C 99% Calm Calm -- 30.12 in1020.0 mb 0.02 in0.5 mm 0.12 in3.0 mm 0.08 in2.0 mm
02:10 AM 59.8°F15.4°C 59.5°F15.3°C 99% Calm Calm 1.1 mph1.8 kmh 30.12 in1020.0 mb 0.01 in0.3 mm 0.00 in0.0 mm 0.07 in1.8 mm
02:05 AM 59.8°F15.4°C 59.5°F15.3°C 99% Calm Calm 1.1 mph1.8 kmh 30.11 in1019.6 mb 0.01 in0.3 mm 0.00 in0.0 mm 0.07 in1.8 mm
01:59 AM 59.8°F15.4°C 59.5°F15.3°C 99% 1.1 mph SW1.8 kmh SW 2.3 mph3.7 kmh 30.11 in1019.6 mb 0.02 in0.5 mm 0.00 in0.0 mm 0.07 in1.8 mm
01:55 AM 59.8°F15.4°C 59.5°F15.3°C 99% Calm Calm 2.3 mph3.7 kmh 30.11 in1019.6 mb 0.02 in0.5 mm 0.00 in0.0 mm 0.07 in1.8 mm
01:50 AM 59.8°F15.4°C 59.5°F15.3°C 99% Calm Calm 5.8 mph9.3 kmh 30.12 in1020.0 mb 0.04 in1.0 mm 0.00 in0.0 mm 0.07 in1.8 mm
01:45 AM 59.8°F15.4°C 59.5°F15.3°C 99% 1.1 mph WSW1.8 kmh WSW 5.8 mph9.3 kmh 30.11 in1019.6 mb 0.04 in1.0 mm 0.00 in0.0 mm 0.07 in1.8 mm
01:40 AM 59.8°F15.4°C 59.5°F15.3°C 99% Calm Calm 8.1 mph13.0 kmh 30.11 in1019.6 mb 0.05 in1.3 mm 0.00 in0.0 mm 0.07 in1.8 mm
01:35 AM 59.7°F15.4°C 59.4°F15.2°C 99% 2.3 mph SW3.7 kmh SW 8.1 mph13.0 kmh 30.11 in1019.6 mb 0.05 in1.3 mm 0.00 in0.0 mm 0.07 in1.8 mm
01:30 AM 59.7°F15.4°C 59.4°F15.2°C 99% Calm Calm 8.1 mph13.0 kmh 30.11 in1019.6 mb 0.06 in1.5 mm 0.00 in0.0 mm 0.07 in1.8 mm
01:25 AM 59.5°F15.3°C 59.5°F15.3°C 100% Calm Calm 8.1 mph13.0 kmh 30.11 in1019.6 mb 0.06 in1.5 mm 0.00 in0.0 mm 0.07 in1.8 mm
01:20 AM 59.2°F15.1°C 59.2°F15.1°C 100% Calm Calm 6.9 mph11.1 kmh 30.11 in1019.6 mb 0.06 in1.5 mm 0.12 in3.0 mm 0.07 in1.8 mm
01:15 AM 59.0°F15.0°C 59.0°F15.0°C 100% 3.4 mph S5.5 kmh S 6.9 mph11.1 kmh 30.11 in1019.6 mb 0.05 in1.3 mm 0.00 in0.0 mm 0.06 in1.5 mm
01:10 AM 58.5°F14.7°C 58.5°F14.7°C 100% 3.4 mph SW5.5 kmh SW 8.1 mph13.0 kmh 30.11 in1019.6 mb 0.05 in1.3 mm 0.00 in0.0 mm 0.06 in1.5 mm
01:05 AM 57.7°F14.3°C 57.7°F14.3°C 100% Calm Calm 1.1 mph1.8 kmh 30.11 in1019.6 mb 0.05 in1.3 mm 0.00 in0.0 mm 0.06 in1.5 mm
12:59 AM 57.2°F14.0°C 56.9°F13.8°C 99% Calm Calm 1.1 mph1.8 kmh 30.11 in1019.6 mb 0.05 in1.3 mm 0.00 in0.0 mm 0.06 in1.5 mm
12:55 AM 57.2°F14.0°C 56.9°F13.8°C 99% Calm Calm -- 30.11 in1019.6 mb 0.05 in1.3 mm 0.12 in3.0 mm 0.06 in1.5 mm
12:50 AM 57.3°F14.1°C 57.0°F13.9°C 99% Calm Calm 1.1 mph1.8 kmh 30.11 in1019.6 mb 0.04 in1.0 mm 0.12 in3.0 mm 0.05 in1.3 mm
12:45 AM 57.3°F14.1°C 57.0°F13.9°C 99% Calm Calm 1.1 mph1.8 kmh 30.11 in1019.6 mb 0.03 in0.8 mm 0.12 in3.0 mm 0.04 in1.0 mm
12:40 AM 57.5°F14.2°C 56.9°F13.8°C 98% Calm Calm 1.1 mph1.8 kmh 30.11 in1019.6 mb 0.02 in0.5 mm 0.12 in3.0 mm 0.03 in0.8 mm
12:35 AM 57.6°F14.2°C 57.0°F13.9°C 98% Calm Calm -- 30.11 in1019.6 mb 0.01 in0.3 mm 0.00 in0.0 mm 0.02 in0.5 mm
12:30 AM 57.7°F14.3°C 57.1°F13.9°C 98% Calm Calm -- 30.11 in1019.6 mb 0.01 in0.3 mm 0.00 in0.0 mm 0.02 in0.5 mm
12:25 AM 58.0°F14.4°C 57.4°F14.1°C 98% Calm Calm -- 30.11 in1019.6 mb 0.01 in0.3 mm 0.12 in3.0 mm 0.02 in0.5 mm
12:20 AM 58.3°F14.6°C 57.4°F14.1°C 97% Calm Calm -- 30.11 in1019.6 mb 0.00 in0.0 mm 0.00 in0.0 mm 0.01 in0.3 mm
12:15 AM 58.6°F14.8°C 57.7°F14.3°C 97% Calm Calm -- 30.11 in1019.6 mb 0.00 in0.0 mm 0.00 in0.0 mm 0.01 in0.3 mm
12:10 AM 58.8°F14.9°C 58.2°F14.6°C 98% Calm Calm -- 30.11 in1019.6 mb 0.01 in0.3 mm 0.00 in0.0 mm 0.01 in0.3 mm
12:05 AM 59.0°F15.0°C 58.4°F14.7°C 98% Calm Calm -- 30.11 in1019.6 mb 0.01 in0.3 mm 0.12 in3.0 mm 0.01 in0.3 mm